Time;durP1;ratioP1;P1;durP2;ratioP2;P2;SDS_P1;SDS_P2;PMS_P1;PMS_P2;Temp;Humidity;BMP_temperature;BMP_pressure;BME280_temperature;BME280_humidity;BME280_pressure;Samples;Min_cycle;Max_cycle;Signal;HPM_P1;HPM_P2
2022/04/29 00:01:23;;;;;;;4.80;4.13;;;;;;;10.17;nan;100401.97;4973568;28;20266;-74
2022/04/29 00:03:49;;;;;;;4.87;4.50;;;;;;;10.16;nan;100397.66;4971633;28;20228;-74
2022/04/29 00:06:14;;;;;;;4.93;4.53;;;;;;;10.16;nan;100402.91;4972201;28;20212;-74
2022/04/29 00:08:40;;;;;;;4.87;4.40;;;;;;;10.18;nan;100391.41;4973509;28;20708;-74
2022/04/29 00:11:06;;;;;;;5.47;4.97;;;;;;;10.19;nan;100389.63;4975906;28;20955;-74
2022/04/29 00:13:33;;;;;;;4.22;3.83;;;;;;;10.20;nan;100394.78;4970147;28;20215;-74
2022/04/29 00:15:59;;;;;;;4.00;3.60;;;;;;;10.23;nan;100388.53;4974045;28;20209;-74
2022/04/29 00:18:25;;;;;;;5.70;5.20;;;;;;;10.25;nan;100389.31;4969160;28;20208;-74
2022/04/29 00:20:51;;;;;;;4.60;3.60;;;;;;;10.27;nan;100394.50;4975012;28;20219;-72
2022/04/29 00:23:17;;;;;;;5.53;5.00;;;;;;;10.26;nan;100388.41;4974569;28;20501;-73
2022/04/29 00:25:43;;;;;;;4.95;4.10;;;;;;;10.23;nan;100387.69;4976717;28;20253;-72
2022/04/29 00:28:08;;;;;;;6.93;4.40;;;;;;;10.16;nan;100397.66;4975812;28;20704;-73
2022/04/29 00:30:34;;;;;;;4.97;4.33;;;;;;;10.01;nan;100391.38;4971317;28;20204;-73
2022/04/29 00:33:00;;;;;;;4.45;4.05;;;;;;;9.91;nan;100400.59;4960050;28;20711;-74
2022/04/29 00:35:26;;;;;;;4.90;4.40;;;;;;;9.85;nan;100398.28;4972069;28;20244;-74
2022/04/29 00:37:53;;;;;;;5.13;4.10;;;;;;;9.82;nan;100394.03;4973733;28;20207;-73
2022/04/29 00:40:22;;;;;;;4.90;4.50;;;;;;;9.74;nan;100383.88;4965266;28;20219;-74
2022/04/29 00:42:47;;;;;;;4.68;4.10;;;;;;;9.65;nan;100388.75;4972422;28;20223;-73
2022/04/29 00:45:14;;;;;;;4.17;3.77;;;;;;;9.60;nan;100388.09;4975443;28;20609;-74
2022/04/29 00:47:40;;;;;;;4.90;4.40;;;;;;;9.61;nan;100377.53;4976830;28;20407;-74
2022/04/29 00:50:06;;;;;;;5.10;4.60;;;;;;;9.59;nan;100375.94;4978175;28;20222;-73
2022/04/29 00:52:35;;;;;;;6.38;4.82;;;;;;;;;;4975143;28;20228;-73
2022/04/29 00:55:02;;;;;;;5.53;4.20;;;;;;;;;;4971663;28;20246;-74
2022/04/29 00:57:36;;;;;;;4.97;4.47;;;;;;;;;;4975521;28;20262;-74
2022/04/29 01:00:06;;;;;;;5.03;4.53;;;;;;;9.74;nan;100365.53;4975977;28;20242;-74
2022/04/29 01:02:32;;;;;;;5.13;4.43;;;;;;;9.77;nan;100364.53;4972971;28;20232;-73
2022/04/29 01:05:02;;;;;;;4.25;3.85;;;;;;;9.80;nan;100358.28;4956829;28;20294;-74
2022/04/29 01:07:30;;;;;;;4.55;4.20;;;;;;;9.80;nan;100361.75;4954793;28;20239;-74
2022/04/29 01:09:56;;;;;;;4.57;4.13;;;;;;;9.79;nan;100361.84;4978565;28;20208;-73
2022/04/29 01:12:24;;;;;;;4.60;3.80;;;;;;;9.73;nan;100355.13;4958421;28;20314;-73
2022/04/29 01:14:49;;;;;;;12.38;4.32;;;;;;;9.68;nan;100341.38;4972087;28;20967;-74
2022/04/29 01:17:15;;;;;;;5.33;4.37;;;;;;;9.58;nan;100346.19;4977915;28;20716;-73
2022/04/29 01:19:40;;;;;;;4.80;4.40;;;;;;;9.47;nan;100344.09;4977465;28;20453;-73
2022/04/29 01:22:07;;;;;;;5.90;5.30;;;;;;;9.38;nan;100334.03;4977924;28;20759;-73
2022/04/29 01:24:33;;;;;;;5.90;5.40;;;;;;;9.26;nan;100334.59;4972594;28;20204;-73
2022/04/29 01:26:58;;;;;;;6.77;5.20;;;;;;;9.21;nan;100339.25;4976080;28;20226;-74
2022/04/29 01:29:26;;;;;;;4.30;4.00;;;;;;;9.15;nan;100350.81;4944369;28;20482;-73
2022/04/29 01:31:53;;;;;;;5.97;5.43;;;;;;;9.08;nan;100344.19;4957898;28;20476;-74
2022/04/29 01:34:18;;;;;;;4.45;4.07;;;;;;;8.99;nan;100336.72;4956924;28;20512;-73
2022/04/29 01:36:44;;;;;;;5.37;4.87;;;;;;;8.88;nan;100342.44;4961486;28;20267;-74
2022/04/29 01:39:10;;;;;;;4.18;3.75;;;;;;;8.83;nan;100336.56;4970070;28;20200;-74
2022/04/29 01:41:36;;;;;;;4.33;4.00;;;;;;;8.74;nan;100339.59;4968817;28;20293;-73
2022/04/29 01:44:02;;;;;;;4.77;4.37;;;;;;;8.63;nan;100338.31;4969782;28;20465;-73
2022/04/29 01:46:27;;;;;;;6.70;5.97;;;;;;;8.54;nan;100343.94;4974790;28;20693;-73
2022/04/29 01:49:03;;;;;;;5.32;4.82;;;;;;;8.43;nan;100340.09;4954746;28;20230;-73
2022/04/29 01:51:31;;;;;;;5.88;4.15;;;;;;;8.33;nan;100335.22;4955640;28;20657;-73
2022/04/29 01:53:57;;;;;;;5.60;5.00;;;;;;;8.28;nan;100352.03;4949478;28;20479;-73
2022/04/29 01:56:32;;;;;;;6.10;5.40;;;;;;;8.17;nan;100348.09;4970348;28;20232;-73
2022/04/29 01:59:00;;;;;;;5.00;4.60;;;;;;;8.06;nan;100345.06;4952668;28;20236;-73
2022/04/29 02:01:27;;;;;;;5.78;5.20;;;;;;;8.00;nan;100342.72;4970146;28;20426;-73
2022/04/29 02:03:53;;;;;;;4.63;4.22;;;;;;;;;;4950156;28;20546;-73
2022/04/29 02:06:19;;;;;;;6.30;4.97;;;;;;;8.05;nan;100338.16;4955941;28;20662;-73
2022/04/29 02:08:45;;;;;;;5.00;4.50;;;;;;;8.11;nan;100340.50;4957778;28;20256;-73
2022/04/29 02:11:10;;;;;;;7.33;4.90;;;;;;;8.13;nan;100343.91;4952759;28;20674;-73
2022/04/29 02:13:36;;;;;;;5.33;4.73;;;;;;;8.15;nan;100342.06;4980020;23;20242;-76
2022/04/29 02:16:19;;;;;;;4.95;4.45;;;;;;;8.13;nan;100336.06;4997775;28;20549;-74
2022/04/29 02:18:45;;;;;;;5.63;4.87;;;;;;;8.16;nan;100346.41;5003888;28;21000;-76
2022/04/29 02:21:10;;;;;;;6.03;5.03;;;;;;;8.17;nan;100342.88;5003849;28;20234;-76
2022/04/29 02:23:37;;;;;;;6.20;5.60;;;;;;;8.15;nan;100342.06;4997453;28;20208;-74
2022/04/29 02:26:03;;;;;;;5.80;5.17;;;;;;;8.07;nan;100341.53;5010093;28;20206;-74
2022/04/29 02:28:28;;;;;;;5.97;5.43;;;;;;;7.95;nan;100335.06;4997255;28;20206;-73
2022/04/29 02:30:55;;;;;;;5.35;4.95;;;;;;;7.87;nan;100331.06;4990317;28;20866;-76
2022/04/29 02:33:21;;;;;;;6.10;5.20;;;;;;;7.85;nan;100332.88;4993460;28;20234;-74
2022/04/29 02:35:46;;;;;;;5.07;4.67;;;;;;;7.87;nan;100329.28;5002734;28;20824;-76
2022/04/29 02:38:12;;;;;;;6.90;4.80;;;;;;;7.93;nan;100334.25;5000892;28;20242;-76
2022/04/29 02:40:37;;;;;;;5.53;5.00;;;;;;;7.98;nan;100324.47;4995260;28;20305;-73
2022/04/29 02:43:03;;;;;;;6.40;5.30;;;;;;;8.05;nan;100322.47;5010304;28;20269;-76
2022/04/29 02:45:28;;;;;;;5.70;5.17;;;;;;;8.06;nan;100313.69;4992398;28;20200;-72
2022/04/29 02:47:54;;;;;;;5.60;5.10;;;;;;;8.09;nan;100316.16;4994364;28;20203;-75
2022/04/29 02:50:19;;;;;;;7.70;5.07;;;;;;;8.11;nan;100324.81;5006889;28;20660;-74
2022/04/29 02:52:58;;;;;;;5.22;4.72;;;;;;;8.14;nan;100321.22;5008801;28;20290;-75
2022/04/29 02:55:24;;;;;;;5.73;5.20;;;;;;;8.18;nan;100328.00;5006286;28;20322;-73
2022/04/29 02:58:12;;;;;;;5.35;4.88;;;;;;;8.24;nan;100329.53;4974245;28;20804;-73
2022/04/29 03:00:39;;;;;;;6.50;5.03;;;;;;;8.26;nan;100320.69;5008828;28;20223;-76
2022/04/29 03:03:05;;;;;;;5.78;4.78;;;;;;;8.31;nan;100331.81;5008163;28;20323;-76
2022/04/29 03:05:31;;;;;;;6.47;4.67;;;;;;;8.33;nan;100318.66;4996255;28;20301;-76
2022/04/29 03:07:56;;;;;;;7.97;5.60;;;;;;;8.30;nan;100326.66;5007642;28;20568;-76
2022/04/29 03:10:22;;;;;;;4.77;4.20;;;;;;;8.26;nan;100318.06;5007656;28;20203;-76
2022/04/29 03:12:47;;;;;;;4.97;4.50;;;;;;;8.25;nan;100320.75;4990407;28;20199;-77
2022/04/29 03:15:33;;;;;;;6.25;5.22;;;;;;;8.20;nan;100318.34;4993269;28;20495;-73
2022/04/29 03:20:44;;;;;;;5.40;4.90;;;;;;;8.14;nan;100331.69;4990188;28;20309;-75
2022/04/29 03:23:12;;;;;;;5.57;5.07;;;;;;;8.11;nan;100324.81;4991736;28;20716;-73
2022/04/29 03:25:42;;;;;;;12.00;10.55;;;;;;;8.05;nan;100329.47;4989853;28;20213;-73
2022/04/29 03:28:08;;;;;;;8.37;6.73;;;;;;;7.96;nan;100331.50;4990936;28;20207;-76
2022/04/29 03:30:35;;;;;;;5.28;4.78;;;;;;;7.90;nan;100321.31;4993975;28;20398;-76
2022/04/29 03:33:03;;;;;;;5.38;4.88;;;;;;;7.75;nan;100328.03;4995658;28;20210;-76
2022/04/29 03:35:44;;;;;;;6.00;5.40;;;;;;;7.66;nan;100328.38;4990353;28;20219;-76
2022/04/29 03:38:16;;;;;;;5.72;5.22;;;;;;;7.51;nan;100335.09;5008187;28;20203;-73
2022/04/29 03:40:42;;;;;;;6.18;5.57;;;;;;;7.37;nan;100326.94;4989601;28;20227;-72
2022/04/29 03:43:18;;;;;;;6.55;5.95;;;;;;;7.28;nan;100319.44;4990197;28;20227;-76
2022/04/29 03:45:45;;;;;;;6.88;5.85;;;;;;;7.16;nan;100333.84;4995947;28;20742;-76
2022/04/29 03:48:15;;;;;;;6.70;6.07;;;;;;;;;;4995156;28;20298;-74
2022/04/29 03:50:59;;;;;;;6.75;5.35;;;;;;;;;;4993899;28;20210;-77
2022/04/29 03:53:24;;;;;;;7.77;6.53;;;;;;;;;;4995027;28;20223;-76
2022/04/29 03:55:58;;;;;;;7.80;5.40;;;;;;;;;;5001682;28;20200;-76
2022/04/29 03:58:24;;;;;;;10.13;5.68;;;;;;;;;;5002722;28;20207;-76
2022/04/29 04:00:52;;;;;;;6.43;5.30;;;;;;;;;;5002777;28;20229;-74
2022/04/29 04:03:40;;;;;;;7.38;6.68;;;;;;;;;;4992036;28;20585;-74
2022/04/29 04:08:54;;;;;;;6.38;5.85;;;;;;;7.35;nan;100323.53;4977185;28;20240;-77
2022/04/29 04:11:20;;;;;;;5.78;5.28;;;;;;;7.36;nan;100321.78;4979124;28;20204;-73
2022/04/29 04:13:46;;;;;;;6.05;5.45;;;;;;;7.29;nan;100322.00;4978108;28;20326;-77
2022/04/29 04:16:45;;;;;;;6.63;5.20;;;;;;;7.30;nan;100321.09;4976071;28;20303;-75
2022/04/29 04:19:12;;;;;;;6.05;5.45;;;;;;;7.31;nan;100328.00;4994821;28;20211;-77
2022/04/29 04:21:39;;;;;;;6.70;6.00;;;;;;;7.30;nan;100325.47;4975505;28;20234;-79
2022/04/29 04:24:06;;;;;;;7.85;6.90;;;;;;;7.27;nan;100331.66;4986508;28;20701;-79
2022/04/29 04:26:32;;;;;;;12.65;7.68;;;;;;;7.23;nan;100330.06;4990673;28;20211;-77
2022/04/29 04:29:00;;;;;;;7.05;6.20;;;;;;;7.22;nan;100337.97;4975053;28;20290;-78
2022/04/29 04:31:34;;;;;;;7.28;6.18;;;;;;;7.22;nan;100344.06;4990083;28;20203;-77
2022/04/29 04:34:49;;;;;;;7.17;5.93;;;;;;;7.27;nan;100346.50;4975530;28;20774;-78
2022/04/29 04:36:53;;;;;;;7.45;6.40;;;;;;;7.34;nan;100349.72;4978994;28;20204;-79
2022/04/29 04:39:22;;;;;;;7.80;6.22;;;;;;;7.41;nan;100344.19;4977385;28;20242;-78
2022/04/29 04:41:56;;;;;;;10.85;6.85;;;;;;;7.46;nan;100344.03;4993440;28;20677;-78
2022/04/29 04:44:32;;;;;;;7.68;6.30;;;;;;;7.46;nan;100344.03;4994434;28;20520;-78
2022/04/29 04:46:57;;;;;;;7.57;6.20;;;;;;;7.49;nan;100339.53;4981794;28;20692;-77
2022/04/29 04:49:52;;;;;;;9.88;5.93;;;;;;;7.55;nan;100338.44;4971924;28;20469;-79
2022/04/29 04:52:22;;;;;;;7.47;5.72;;;;;;;7.60;nan;100339.09;5000735;28;20194;-79
2022/04/29 04:54:49;;;;;;;10.60;6.37;;;;;;;7.66;nan;100344.06;4972261;28;20227;-78
2022/04/29 04:57:15;;;;;;;8.07;6.10;;;;;;;7.73;nan;100340.31;4979143;28;20459;-78
2022/04/29 04:59:40;;;;;;;7.53;6.27;;;;;;;7.81;nan;100345.25;4981224;28;20261;-77
2022/04/29 05:02:06;;;;;;;8.13;6.13;;;;;;;7.94;nan;100345.59;4975496;28;20492;-77
2022/04/29 05:04:59;;;;;;;5.43;5.03;;;;;;;8.02;nan;100347.88;4977954;28;20235;-76
2022/04/29 05:07:38;;;;;;;5.75;5.15;;;;;;;8.40;nan;100338.47;4985295;28;20253;-77
2022/04/29 05:10:07;;;;;;;5.55;5.10;;;;;;;8.81;nan;100344.50;4972303;28;20706;-76
2022/04/29 05:12:41;;;;;;;6.60;5.38;;;;;;;9.12;nan;100339.66;4994187;28;20371;-77
2022/04/29 05:15:14;;;;;;;6.00;5.50;;;;;;;9.34;nan;100339.50;4965623;28;20216;-77
2022/04/29 05:17:40;;;;;;;8.20;6.57;;;;;;;9.45;nan;100343.34;5012150;28;20623;-77
2022/04/29 05:20:25;;;;;;;7.93;7.22;;;;;;;9.70;nan;100344.78;5004308;28;20218;-77
2022/04/29 05:22:50;;;;;;;7.33;6.17;;;;;;;9.83;nan;100348.50;5003621;28;20206;-77
2022/04/29 05:25:16;;;;;;;10.10;6.67;;;;;;;9.88;nan;100357.00;5005368;28;20286;-77
2022/04/29 05:28:00;;;;;;;9.13;7.68;;;;;;;10.04;nan;100351.84;5010766;28;20222;-77
2022/04/29 05:30:44;;;;;;;8.07;7.28;;;;;;;10.34;nan;100348.63;5008558;28;20225;-77
2022/04/29 05:33:33;;;;;;;10.95;6.95;;;;;;;10.58;nan;100346.53;5006067;28;20273;-77
2022/04/29 05:36:18;;;;;;;8.07;6.05;;;;;;;10.82;nan;100357.53;5007144;28;20608;-77
2022/04/29 05:44:32;;;;;;;9.27;7.28;;;;;;;10.59;nan;100361.38;5007035;28;20238;-77
2022/04/29 05:46:57;;;;;;;9.38;8.48;;;;;;;10.56;nan;100358.91;5004708;28;20694;-77
2022/04/29 05:49:24;;;;;;;10.20;9.20;;;;;;;10.59;nan;100353.50;5004329;28;20728;-77
2022/04/29 05:51:50;;;;;;;10.88;8.07;;;;;;;10.68;nan;100358.25;5005017;28;20205;-77
2022/04/29 05:54:18;;;;;;;8.45;7.63;;;;;;;10.85;nan;100365.25;5005001;28;20218;-77
2022/04/29 05:56:44;;;;;;;8.87;7.50;;;;;;;11.16;nan;100359.22;5020087;28;20593;-77
2022/04/29 05:59:13;;;;;;;8.13;6.25;;;;;;;11.38;nan;100368.59;5004789;28;20203;-77
2022/04/29 06:01:57;;;;;;;7.10;6.50;;;;;;;11.53;nan;100370.38;5004575;28;20225;-77
2022/04/29 06:04:30;;;;;;;7.28;6.53;;;;;;;11.72;nan;100363.16;5002964;28;20214;-77
2022/04/29 06:06:56;;;;;;;7.53;6.83;;;;;;;11.89;nan;100356.09;4997983;28;20631;-78
2022/04/29 06:09:21;;;;;;;8.90;7.47;;;;;;;11.95;nan;100364.50;5012582;28;20198;-77
2022/04/29 06:11:48;;;;;;;10.13;7.47;;;;;;;12.09;nan;100362.84;4997664;28;20483;-77
2022/04/29 06:14:24;;;;;;;7.60;7.00;;;;;;;12.15;nan;100358.09;4997624;28;20241;-77
2022/04/29 06:17:18;;;;;;;7.75;6.95;;;;;;;12.14;nan;100353.75;4998844;28;20221;-77
2022/04/29 06:20:02;;;;;;;9.82;7.32;;;;;;;12.24;nan;100351.44;4997263;28;20918;-77
2022/04/29 06:22:50;;;;;;;7.30;6.70;;;;;;;12.27;nan;100363.56;4998802;28;20276;-78
2022/04/29 06:25:24;;;;;;;6.90;6.10;;;;;;;12.32;nan;100361.53;4996770;28;20297;-77
2022/04/29 06:27:50;;;;;;;9.85;8.95;;;;;;;12.42;nan;100367.91;4998595;28;20560;-77
2022/04/29 06:30:15;;;;;;;7.97;7.17;;;;;;;12.52;nan;100366.44;4999092;28;20679;-78
2022/04/29 06:32:56;;;;;;;6.68;5.97;;;;;;;12.63;nan;100356.09;4997017;28;20211;-78
2022/04/29 06:35:25;;;;;;;8.02;7.22;;;;;;;12.69;nan;100359.31;4999583;28;20213;-77
2022/04/29 06:37:51;;;;;;;7.90;7.20;;;;;;;12.76;nan;100358.00;4997457;28;20206;-77
2022/04/29 06:40:37;;;;;;;9.23;6.50;;;;;;;12.87;nan;100365.28;4978534;28;20482;-77
2022/04/29 06:43:03;;;;;;;8.60;7.70;;;;;;;12.81;nan;100361.22;5012392;28;20225;-77
2022/04/29 06:45:47;;;;;;;8.77;7.88;;;;;;;12.66;nan;100359.50;4996696;28;20237;-77
2022/04/29 06:48:31;;;;;;;8.43;7.55;;;;;;;12.53;nan;100368.16;4997740;28;20218;-77
2022/04/29 06:51:14;;;;;;;7.55;6.90;;;;;;;12.48;nan;100370.22;5000167;28;20218;-77
2022/04/29 06:53:51;;;;;;;8.65;7.50;;;;;;;12.55;nan;100368.91;4999853;28;20800;-79
2022/04/29 06:56:22;;;;;;;8.73;7.80;;;;;;;12.50;nan;100372.75;5014682;28;20622;-77
2022/04/29 06:58:49;;;;;;;8.80;7.93;;;;;;;12.52;nan;100373.50;4996738;28;20241;-78
2022/04/29 07:01:14;;;;;;;9.80;7.72;;;;;;;12.59;nan;100365.16;4998030;28;20298;-77
2022/04/29 07:03:40;;;;;;;8.93;6.97;;;;;;;12.63;nan;100371.06;4996927;28;20249;-77
2022/04/29 07:06:06;;;;;;;9.80;7.90;;;;;;;12.84;nan;100371.56;4999313;28;20241;-77
2022/04/29 07:08:32;;;;;;;9.70;8.70;;;;;;;12.96;nan;100368.19;5013402;28;20199;-76
2022/04/29 07:11:16;;;;;;;8.52;7.63;;;;;;;13.04;nan;100360.66;4998897;28;20440;-77
2022/04/29 07:13:43;;;;;;;8.67;7.63;;;;;;;13.18;nan;100358.97;4998729;28;20622;-77
2022/04/29 07:16:10;;;;;;;9.65;8.05;;;;;;;13.26;nan;100359.38;5013994;28;20675;-76
2022/04/29 07:19:00;;;;;;;7.95;6.40;;;;;;;13.53;nan;100355.88;4996671;28;20595;-77
2022/04/29 07:21:25;;;;;;;8.70;7.80;;;;;;;13.81;nan;100345.25;4997482;28;20691;-77
2022/04/29 07:23:51;;;;;;;8.00;7.13;;;;;;;14.01;nan;100351.00;4997105;28;20505;-76
2022/04/29 07:26:17;;;;;;;8.88;7.63;;;;;;;14.12;nan;100348.50;4997387;28;20682;-77
2022/04/29 07:28:43;;;;;;;10.73;8.90;;;;;;;14.13;nan;100350.22;4997245;28;20252;-77
2022/04/29 07:31:09;;;;;;;8.70;7.72;;;;;;;14.19;nan;100346.31;4995368;28;20221;-77
2022/04/29 07:33:53;;;;;;;8.93;7.93;;;;;;;14.34;nan;100337.38;4998925;28;20344;-77
2022/04/29 07:42:10;;;;;;;7.97;7.18;;;;;;;14.01;nan;100348.38;4985243;28;20594;-77
2022/04/29 07:44:36;;;;;;;8.37;7.40;;;;;;;14.23;nan;100346.03;4997332;28;20372;-77
2022/04/29 07:47:04;;;;;;;8.52;7.72;;;;;;;14.57;nan;100333.19;4998299;28;20544;-76
2022/04/29 07:49:56;;;;;;;8.10;7.28;;;;;;;15.06;nan;100329.75;4996443;28;20226;-76
2022/04/29 07:52:22;;;;;;;9.37;8.50;;;;;;;15.59;nan;100326.84;5014300;28;20555;-77
2022/04/29 07:57:23;;;;;;;8.70;7.80;;;;;;;16.52;nan;100333.09;5810914;22;20253;-76
2022/04/29 07:59:51;;;;;;;8.93;6.82;;;;;;;17.10;nan;100329.56;4980641;28;20199;-77
2022/04/29 08:02:55;;;;;;;8.32;7.53;;;;;;;17.37;nan;100326.53;4999026;28;20235;-78
2022/04/29 08:05:41;;;;;;;8.02;7.07;;;;;;;17.14;nan;100323.03;4997134;28;20467;-77
2022/04/29 08:08:06;;;;;;;11.30;8.67;;;;;;;17.08;nan;100328.84;4999657;28;20549;-76
2022/04/29 08:10:32;;;;;;;10.80;7.03;;;;;;;17.13;nan;100324.00;4997791;28;20195;-76
2022/04/29 08:12:59;;;;;;;27.50;8.63;;;;;;;17.20;nan;100322.53;4996993;28;20227;-74
2022/04/29 08:15:45;;;;;;;10.27;8.23;;;;;;;17.30;nan;100320.00;4999709;28;20654;-75
2022/04/29 08:18:27;;;;;;;9.35;6.93;;;;;;;17.29;nan;100321.81;4998542;28;20213;-75
2022/04/29 08:20:53;;;;;;;8.47;7.73;;;;;;;17.22;nan;100321.44;4998838;28;20228;-74
2022/04/29 08:23:19;;;;;;;9.60;8.60;;;;;;;17.12;nan;100324.97;4982270;28;20299;-75
2022/04/29 08:25:45;;;;;;;9.87;8.10;;;;;;;16.96;nan;100317.41;4981330;28;20295;-74
2022/04/29 08:28:11;;;;;;;7.70;6.75;;;;;;;16.88;nan;100325.97;4982748;28;20665;-75
2022/04/29 08:30:39;;;;;;;10.38;8.13;;;;;;;17.03;nan;100322.06;4981045;28;20420;-75
2022/04/29 08:33:04;;;;;;;9.27;8.47;;;;;;;17.27;nan;100318.44;4996669;28;20239;-76
2022/04/29 08:35:40;;;;;;;8.98;8.15;;;;;;;17.47;nan;100317.69;5002075;28;20198;-79
2022/04/29 08:38:10;;;;;;;9.03;6.80;;;;;;;17.70;nan;100312.28;4992037;28;20221;-78
2022/04/29 08:40:49;;;;;;;9.10;8.07;;;;;;;17.90;nan;100311.53;4989790;28;20734;-79
2022/04/29 08:43:21;;;;;;;9.80;7.63;;;;;;;18.04;nan;100310.38;5008238;28;20839;-78
2022/04/29 08:45:50;;;;;;;8.60;7.80;;;;;;;18.16;nan;100305.84;4994253;28;20456;-78
2022/04/29 08:48:36;;;;;;;8.23;7.43;;;;;;;18.39;nan;100301.25;5004068;28;20837;-77
2022/04/29 08:51:03;;;;;;;8.63;7.90;;;;;;;18.44;nan;100306.16;5010182;28;20457;-78
2022/04/29 08:53:28;;;;;;;7.23;6.50;;;;;;;18.54;nan;100309.72;5010594;28;20223;-78
2022/04/29 08:58:39;;;;;;;9.00;8.20;;;;;;;18.55;nan;100316.72;5015227;28;20239;-78
2022/04/29 09:01:16;;;;;;;9.30;8.40;;;;;;;18.43;nan;100313.28;5009262;28;20931;-77
2022/04/29 09:03:46;;;;;;;8.37;7.53;;;;;;;18.42;nan;100316.09;5012029;28;20480;-76
2022/04/29 09:06:12;;;;;;;9.77;8.77;;;;;;;18.49;nan;100307.44;5001288;28;20837;-75
2022/04/29 09:08:42;;;;;;;8.30;7.50;;;;;;;18.50;nan;100306.47;5002772;28;20861;-75
2022/04/29 09:11:10;;;;;;;7.90;7.20;;;;;;;18.35;nan;100299.81;5002607;28;20631;-75
2022/04/29 09:13:40;;;;;;;9.03;8.13;;;;;;;18.44;nan;100308.81;5005609;28;20479;-75
2022/04/29 09:16:06;;;;;;;11.90;8.17;;;;;;;18.64;nan;100309.78;5001847;28;20814;-75
2022/04/29 09:18:37;;;;;;;9.30;8.43;;;;;;;18.74;nan;100302.66;5003814;28;20986;-75
2022/04/29 09:21:05;;;;;;;8.80;8.10;;;;;;;18.90;nan;100299.53;5003011;28;20520;-75
2022/04/29 09:23:30;;;;;;;9.10;8.20;;;;;;;19.02;nan;100296.66;4984604;28;21023;-75
2022/04/29 09:26:29;;;;;;;8.70;7.23;;;;;;;19.28;nan;100297.97;5002006;28;20464;-75
2022/04/29 09:29:15;;;;;;;9.07;8.37;;;;;;;19.41;nan;100288.75;5004441;28;21033;-74
2022/04/29 09:31:56;;;;;;;12.73;8.50;;;;;;;19.63;nan;100285.00;5002015;28;20465;-75
2022/04/29 09:34:43;;;;;;;9.30;8.40;;;;;;;19.76;nan;100283.91;4998635;28;20992;-76
2022/04/29 09:37:16;;;;;;;8.10;7.30;;;;;;;19.97;nan;100283.75;4982189;28;20512;-74
2022/04/29 09:40:02;;;;;;;8.60;7.23;;;;;;;20.21;nan;100285.97;5001341;28;20445;-74
2022/04/29 09:42:39;;;;;;;7.90;6.33;;;;;;;20.46;nan;100273.84;5000760;28;20501;-75
2022/04/29 09:45:14;;;;;;;12.77;7.53;;;;;;;20.61;nan;100272.44;4982504;28;20809;-74
2022/04/29 09:47:39;;;;;;;6.80;6.00;;;;;;;20.73;nan;100265.06;5001168;28;21087;-74
2022/04/29 09:50:05;;;;;;;13.23;12.13;;;;;;;20.89;nan;100267.09;5004400;28;20866;-76
2022/04/29 09:52:31;;;;;;;6.90;6.30;;;;;;;21.02;nan;100266.75;5001885;28;20756;-75
2022/04/29 09:55:18;;;;;;;7.77;7.00;;;;;;;21.17;nan;100249.22;4999874;28;20240;-75
2022/04/29 09:57:58;;;;;;;6.87;6.27;;;;;;;21.33;nan;100249.41;5000953;28;20782;-74
2022/04/29 10:00:25;;;;;;;7.70;5.87;;;;;;;21.39;nan;100251.50;5000440;28;20466;-75
2022/04/29 10:02:51;;;;;;;7.07;5.87;;;;;;;21.24;nan;100244.13;5002616;28;20452;-76
2022/04/29 10:05:18;;;;;;;7.10;6.40;;;;;;;21.16;nan;100236.88;4998355;28;20486;-75
2022/04/29 10:07:49;;;;;;;7.30;6.60;;;;;;;20.94;nan;100238.97;4982284;28;20527;-76
2022/04/29 10:10:16;;;;;;;6.53;5.60;;;;;;;20.70;nan;100246.69;5000985;28;20888;-76
2022/04/29 10:12:45;;;;;;;8.03;7.23;;;;;;;20.68;nan;100240.63;5000359;28;20466;-75
2022/04/29 10:15:34;;;;;;;7.00;5.40;;;;;;;20.64;nan;100234.75;4998173;28;20459;-76
2022/04/29 10:21:17;;;;;;;6.87;6.17;;;;;;;20.65;nan;100230.25;5006004;28;20544;-76
2022/04/29 10:23:49;;;;;;;7.03;6.43;;;;;;;20.59;nan;100234.34;4988756;28;20474;-76
2022/04/29 10:26:19;;;;;;;7.13;6.47;;;;;;;20.64;nan;100229.41;5004449;28;20473;-76
2022/04/29 10:28:45;;;;;;;6.83;5.67;;;;;;;20.54;nan;100234.78;5005211;28;20524;-75
2022/04/29 10:31:19;;;;;;;5.60;4.90;;;;;;;20.52;nan;100242.09;5006897;28;20576;-76
2022/04/29 10:33:45;;;;;;;6.03;5.50;;;;;;;20.55;nan;100236.50;5006612;28;20547;-75
2022/04/29 10:36:16;;;;;;;7.50;6.30;;;;;;;20.63;nan;100232.22;5003300;28;20458;-74
2022/04/29 10:38:46;;;;;;;6.97;6.30;;;;;;;20.65;nan;100228.41;5004144;28;20470;-75
2022/04/29 10:41:20;;;;;;;6.40;5.50;;;;;;;20.64;nan;100225.91;5006006;28;20532;-75
2022/04/29 10:43:46;;;;;;;6.00;5.57;;;;;;;20.67;nan;100221.13;5005215;28;21296;-75
2022/04/29 10:46:14;;;;;;;7.97;5.83;;;;;;;20.72;nan;100216.19;5005966;28;20469;-75
2022/04/29 10:48:45;;;;;;;6.30;5.80;;;;;;;20.76;nan;100212.19;5003494;28;20808;-76
2022/04/29 10:51:35;;;;;;;8.47;5.63;;;;;;;20.75;nan;100204.34;5006272;28;20442;-76
2022/04/29 10:54:32;;;;;;;6.87;6.27;;;;;;;20.91;nan;100209.06;5005005;28;20518;-76
2022/04/29 10:57:17;;;;;;;6.60;6.00;;;;;;;20.99;nan;100198.47;5005838;28;20483;-76
2022/04/29 10:59:54;;;;;;;4.93;4.43;;;;;;;21.09;nan;100201.91;5005493;28;20465;-74
2022/04/29 11:02:31;;;;;;;6.60;5.00;;;;;;;21.07;nan;100197.72;5003428;28;20982;-76
2022/04/29 11:04:58;;;;;;;5.47;4.97;;;;;;;21.06;nan;100193.34;5005396;28;20883;-73
2022/04/29 11:07:43;;;;;;;6.53;5.83;;;;;;;20.99;nan;100191.28;5005668;28;21011;-76
2022/04/29 11:10:17;;;;;;;5.07;4.67;;;;;;;20.91;nan;100193.88;5004945;28;21259;-76
2022/04/29 11:12:56;;;;;;;6.00;4.73;;;;;;;20.98;nan;100192.28;4987406;28;20487;-76
2022/04/29 11:15:45;;;;;;;5.23;4.73;;;;;;;20.98;nan;100191.41;4976053;28;20623;-74
2022/04/29 11:18:29;;;;;;;5.20;4.70;;;;;;;20.94;nan;100185.53;5008440;28;20507;-75
2022/04/29 11:20:57;;;;;;;6.40;5.30;;;;;;;20.93;nan;100181.22;5005925;28;20493;-76
2022/04/29 11:26:17;;;;;;;4.90;4.37;;;;;;;21.07;nan;100176.34;5006031;28;20567;-76
2022/04/29 11:28:52;;;;;;;5.40;4.10;;;;;;;21.09;nan;100180.53;4988141;28;20470;-75
2022/04/29 11:31:35;;;;;;;4.90;4.50;;;;;;;21.14;nan;100174.72;5004690;28;20457;-76
2022/04/29 11:34:10;;;;;;;4.93;4.43;;;;;;;21.14;nan;100177.41;5003156;28;20481;-75
2022/04/29 11:36:37;;;;;;;5.23;4.20;;;;;;;21.06;nan;100174.66;5005963;28;20447;-75
2022/04/29 11:39:14;;;;;;;5.00;4.60;;;;;;;21.02;nan;100170.63;4991831;28;20509;-76
2022/04/29 11:41:51;;;;;;;6.80;5.30;;;;;;;21.02;nan;100168.78;5004385;28;20248;-75
2022/04/29 11:44:17;;;;;;;4.40;4.00;;;;;;;21.10;nan;100163.50;4986853;28;20801;-76
2022/04/29 11:46:50;;;;;;;4.43;3.67;;;;;;;21.25;nan;100157.63;5004075;28;20516;-76
2022/04/29 11:49:28;;;;;;;3.60;3.30;;;;;;;21.25;nan;100160.31;5002497;28;20656;-75
2022/04/29 11:51:53;;;;;;;3.70;3.40;;;;;;;21.25;nan;100162.97;5003023;28;20461;-73
2022/04/29 11:54:18;;;;;;;4.90;4.40;;;;;;;21.28;nan;100155.50;5004787;28;20639;-74
2022/04/29 11:56:44;;;;;;;4.47;4.07;;;;;;;21.30;nan;100158.84;5005131;28;20675;-75
2022/04/29 11:59:11;;;;;;;4.93;4.53;;;;;;;21.29;nan;100151.84;5003507;28;20301;-75
2022/04/29 12:01:38;;;;;;;5.00;4.30;;;;;;;21.25;nan;100146.94;5004477;28;20463;-75
2022/04/29 12:04:04;;;;;;;4.67;3.80;;;;;;;21.23;nan;100144.44;5004734;28;20494;-75
2022/04/29 12:06:29;;;;;;;5.60;4.57;;;;;;;21.27;nan;100151.13;5007104;28;20461;-75
2022/04/29 12:08:56;;;;;;;4.23;3.83;;;;;;;21.21;nan;100144.59;5006344;28;20471;-76
2022/04/29 12:11:26;;;;;;;4.73;4.33;;;;;;;21.23;nan;100141.78;5006175;28;20666;-75
2022/04/29 12:13:51;;;;;;;4.13;3.83;;;;;;;21.29;nan;100138.47;5007686;28;20546;-75
2022/04/29 12:16:17;;;;;;;4.40;3.67;;;;;;;21.23;nan;100141.78;5003448;28;20453;-76
2022/04/29 12:18:45;;;;;;;4.97;4.33;;;;;;;21.23;nan;100139.09;5006094;28;20218;-75
2022/04/29 12:21:12;;;;;;;5.23;4.00;;;;;;;21.27;nan;100137.78;5012359;28;20231;-75
2022/04/29 12:23:41;;;;;;;4.40;4.00;;;;;;;21.30;nan;100132.13;4995606;28;20516;-75
2022/04/29 12:26:07;;;;;;;5.67;4.10;;;;;;;21.34;nan;100141.53;5008493;28;20930;-75
2022/04/29 12:28:37;;;;;;;4.00;3.70;;;;;;;21.29;nan;100134.97;5013127;28;20220;-74
2022/04/29 12:36:59;;;;;;;4.03;3.63;;;;;;;21.23;nan;100128.41;5011217;28;20458;-75
2022/04/29 12:39:40;;;;;;;3.80;3.50;;;;;;;21.24;nan;100130.06;5011571;28;20541;-75
2022/04/29 12:42:08;;;;;;;3.90;3.60;;;;;;;21.28;nan;100122.59;5011307;28;20481;-74